Time;durP1;ratioP1;P1;durP2;ratioP2;P2;SDS_P1;SDS_P2;PMS_P1;PMS_P2;Temp;Humidity;BMP_temperature;BMP_pressure;BME280_temperature;BME280_humidity;BME280_pressure;Samples;Min_cycle;Max_cycle;Signal;HPM_P1;HPM_P2
2024/01/25 00:00:06;;;;;;;15.57;3.57;;;7.40;1.00;;;;;;5053850;28;20597;-80
2024/01/25 00:02:31;;;;;;;18.33;3.77;;;7.50;1.00;;;;;;5054681;28;20166;-79
2024/01/25 00:04:57;;;;;;;10.30;3.77;;;7.50;9.70;;;;;;5054950;28;20199;-79
2024/01/25 00:07:23;;;;;;;20.80;4.37;;;7.40;1.00;;;;;;5054052;28;20504;-78
2024/01/25 00:09:48;;;;;;;16.30;3.60;;;7.40;17.90;;;;;;5053923;28;20175;-78
2024/01/25 00:12:14;;;;;;;16.60;3.00;;;7.40;9.50;;;;;;5054774;28;20203;-79
2024/01/25 00:14:39;;;;;;;13.37;4.03;;;7.30;43.80;;;;;;5054740;28;20191;-79
2024/01/25 00:17:05;;;;;;;13.73;3.60;;;7.40;20.10;;;;;;5054819;28;20633;-78
2024/01/25 00:19:31;;;;;;;15.67;3.93;;;7.40;45.50;;;;;;5054589;28;20165;-78
2024/01/25 00:21:56;;;;;;;14.03;3.90;;;7.50;27.90;;;;;;5053424;28;20249;-79
2024/01/25 00:24:22;;;;;;;11.73;2.90;;;7.40;48.40;;;;;;5054589;28;20255;-78
2024/01/25 00:26:48;;;;;;;14.37;3.73;;;7.40;75.50;;;;;;5053451;28;20200;-79
2024/01/25 00:29:15;;;;;;;18.93;4.03;;;7.40;78.10;;;;;;5054606;28;20178;-79
2024/01/25 00:31:40;;;;;;;11.93;3.30;;;7.30;91.10;;;;;;5052731;28;20171;-79
2024/01/25 00:34:06;;;;;;;11.53;3.33;;;7.30;99.90;;;;;;5053333;28;20194;-79
2024/01/25 00:36:32;;;;;;;15.20;3.60;;;7.30;64.50;;;;;;5053071;28;20548;-79
2024/01/25 00:38:58;;;;;;;18.30;3.40;;;7.30;32.40;;;;;;5052963;28;20178;-78
2024/01/25 00:41:24;;;;;;;14.23;3.30;;;7.30;25.40;;;;;;5052299;28;20184;-78
2024/01/25 00:43:49;;;;;;;14.73;3.23;;;7.40;22.20;;;;;;5054340;28;20201;-79
2024/01/25 00:46:15;;;;;;;13.47;3.37;;;7.40;4.30;;;;;;5052946;28;20625;-78
2024/01/25 00:48:42;;;;;;;17.30;3.90;;;7.40;4.30;;;;;;5053872;28;20170;-78
2024/01/25 00:51:14;;;;;;;16.20;3.20;;;7.40;1.00;;;;;;5052539;28;20170;-79
2024/01/25 00:53:40;;;;;;;16.67;4.07;;;7.40;6.30;;;;;;5052901;28;20186;-79
2024/01/25 00:56:06;;;;;;;15.40;3.30;;;7.20;33.20;;;;;;5052742;28;20197;-78
2024/01/25 00:58:32;;;;;;;19.73;3.53;;;7.20;33.00;;;;;;5054024;28;20182;-78
2024/01/25 01:00:58;;;;;;;16.83;4.10;;;7.20;65.40;;;;;;5053184;28;20174;-79
2024/01/25 01:03:23;;;;;;;17.93;3.30;;;7.20;53.00;;;;;;5052500;28;20305;-79
2024/01/25 01:05:49;;;;;;;12.67;4.20;;;7.20;58.00;;;;;;5053779;28;20212;-79
2024/01/25 01:08:15;;;;;;;15.20;3.60;;;7.20;88.80;;;;;;5053983;28;20592;-78
2024/01/25 01:10:41;;;;;;;12.80;3.23;;;7.20;60.30;;;;;;5053259;28;20174;-78
2024/01/25 01:13:06;;;;;;;12.53;3.60;;;7.20;46.60;;;;;;5053926;28;20369;-79
2024/01/25 01:15:32;;;;;;;15.63;3.90;;;7.20;49.80;;;;;;5053518;28;20170;-79
2024/01/25 01:17:57;;;;;;;14.50;3.30;;;7.20;28.90;;;;;;5053363;28;20177;-78
2024/01/25 01:20:23;;;;;;;14.57;3.60;;;7.20;15.90;;;;;;5051897;28;20173;-78
2024/01/25 01:22:50;;;;;;;13.80;3.60;;;7.30;1.00;;;;;;5053267;28;20202;-78
2024/01/25 01:25:16;;;;;;;15.50;4.13;;;7.30;1.00;;;;;;5052131;28;20202;-78
2024/01/25 01:27:41;;;;;;;12.30;3.60;;;7.30;1.00;;;;;;5053354;28;20214;-78
2024/01/25 01:30:08;;;;;;;16.10;4.43;;;7.20;17.80;;;;;;5051825;28;20170;-78
2024/01/25 01:32:33;;;;;;;18.40;4.57;;;7.20;19.00;;;;;;5051521;28;20183;-78
2024/01/25 01:34:59;;;;;;;13.80;3.80;;;7.20;19.20;;;;;;5053355;28;20634;-79
2024/01/25 01:37:25;;;;;;;17.80;3.80;;;7.10;41.50;;;;;;5052267;28;20663;-78
2024/01/25 01:39:52;;;;;;;13.73;3.50;;;7.10;34.20;;;;;;5051872;28;20214;-79
2024/01/25 01:42:17;;;;;;;14.73;3.80;;;7.10;44.90;;;;;;5051582;28;20205;-79
2024/01/25 01:44:43;;;;;;;18.93;4.57;;;7.10;40.30;;;;;;5052916;28;20421;-79
2024/01/25 01:47:09;;;;;;;15.37;4.07;;;7.10;44.30;;;;;;5052962;28;20207;-79
2024/01/25 01:49:35;;;;;;;20.10;3.87;;;7.00;78.20;;;;;;5051989;28;20713;-79
2024/01/25 01:52:00;;;;;;;17.87;4.37;;;7.00;82.80;;;;;;5052933;28;20194;-78
2024/01/25 01:54:26;;;;;;;16.13;3.93;;;6.90;95.70;;;;;;5053094;28;20202;-79
2024/01/25 01:56:52;;;;;;;15.13;4.17;;;6.90;99.90;;;;;;5051693;28;20244;-79
2024/01/25 01:59:18;;;;;;;14.60;4.40;;;7.00;95.30;;;;;;5051338;28;20189;-79
2024/01/25 02:01:43;;;;;;;19.07;4.13;;;6.90;99.90;;;;;;5052292;28;20187;-79
2024/01/25 02:04:09;;;;;;;16.37;3.97;;;6.90;99.90;;;;;;5052749;28;20213;-79
2024/01/25 02:06:34;;;;;;;13.77;3.80;;;6.90;99.90;;;;;;5052554;28;20223;-79
2024/01/25 02:09:01;;;;;;;13.37;3.50;;;6.90;99.90;;;;;;5052737;28;20171;-79
2024/01/25 02:11:27;;;;;;;16.10;4.30;;;6.90;99.90;;;;;;5050983;28;20186;-78
2024/01/25 02:13:52;;;;;;;16.53;4.37;;;7.00;99.90;;;;;;5052565;28;20222;-78
2024/01/25 02:16:19;;;;;;;18.10;4.33;;;6.90;99.90;;;;;;5051129;28;20614;-79
2024/01/25 02:18:46;;;;;;;15.77;4.43;;;6.90;99.90;;;;;;5052267;28;20179;-78
2024/01/25 02:21:11;;;;;;;18.67;4.30;;;6.90;99.90;;;;;;5051861;28;20185;-78
2024/01/25 02:23:37;;;;;;;14.23;4.27;;;6.90;99.90;;;;;;5052602;28;20205;-78
2024/01/25 02:26:03;;;;;;;17.70;4.27;;;6.90;99.90;;;;;;5067811;28;20200;-78
2024/01/25 02:28:28;;;;;;;14.30;4.70;;;7.00;99.90;;;;;;5051111;28;20263;-79
2024/01/25 02:30:54;;;;;;;18.63;5.37;;;6.90;99.90;;;;;;5050726;28;20182;-79
2024/01/25 02:33:19;;;;;;;20.33;5.40;;;6.80;99.90;;;;;;5052739;28;20200;-79
2024/01/25 02:35:45;;;;;;;23.50;5.63;;;6.80;99.90;;;;;;5051437;28;20672;-79
2024/01/25 02:38:10;;;;;;;17.33;5.40;;;6.80;99.90;;;;;;5051027;28;20663;-79
2024/01/25 02:40:36;;;;;;;19.23;4.80;;;6.70;99.90;;;;;;5051787;28;20190;-79
2024/01/25 02:43:02;;;;;;;15.03;4.70;;;6.70;99.90;;;;;;5051194;28;20648;-79
2024/01/25 02:45:27;;;;;;;15.10;4.10;;;6.70;99.90;;;;;;5051071;28;20681;-78
2024/01/25 02:47:53;;;;;;;16.87;4.53;;;6.70;99.90;;;;;;5050820;28;20181;-78
2024/01/25 02:50:18;;;;;;;15.83;4.23;;;6.70;99.90;;;;;;5052046;28;20615;-79
2024/01/25 02:52:44;;;;;;;20.13;4.43;;;6.60;99.90;;;;;;5052466;28;20194;-78
2024/01/25 02:55:10;;;;;;;18.87;4.87;;;6.60;99.90;;;;;;5052393;28;20175;-78
2024/01/25 02:57:35;;;;;;;22.47;4.67;;;6.60;99.90;;;;;;5052216;28;20204;-78
2024/01/25 03:00:01;;;;;;;19.03;4.30;;;6.60;99.90;;;;;;5050604;28;20202;-79
2024/01/25 03:02:27;;;;;;;17.70;4.37;;;6.60;99.90;;;;;;5051889;28;20201;-78
2024/01/25 03:04:53;;;;;;;21.40;4.73;;;6.60;99.90;;;;;;5051030;28;20298;-78
2024/01/25 03:07:19;;;;;;;14.10;4.80;;;6.60;99.90;;;;;;5050814;28;20273;-78
2024/01/25 03:09:45;;;;;;;14.47;4.70;;;6.50;99.90;;;;;;5050758;28;20665;-78
2024/01/25 03:12:10;;;;;;;19.17;4.63;;;6.50;99.90;;;;;;5051619;28;20652;-78
2024/01/25 03:14:36;;;;;;;16.60;4.20;;;6.50;99.90;;;;;;5051763;28;20222;-78
2024/01/25 03:17:02;;;;;;;16.23;4.73;;;6.50;99.90;;;;;;5052153;28;20214;-79
2024/01/25 03:19:28;;;;;;;16.23;4.53;;;6.50;99.90;;;;;;5067466;28;20274;-79
2024/01/25 03:21:54;;;;;;;19.53;4.77;;;6.40;99.90;;;;;;5050635;28;20182;-79
2024/01/25 03:24:21;;;;;;;22.00;5.33;;;6.40;99.90;;;;;;5050879;28;20195;-79
2024/01/25 03:26:46;;;;;;;17.50;4.40;;;6.40;99.90;;;;;;5050654;28;20202;-79
2024/01/25 03:29:12;;;;;;;13.77;4.57;;;6.30;99.90;;;;;;5052150;28;20236;-79
2024/01/25 03:31:38;;;;;;;15.10;4.93;;;6.30;99.90;;;;;;5055219;28;20172;-79
2024/01/25 03:34:04;;;;;;;18.47;5.00;;;6.30;99.90;;;;;;5055617;28;20277;-78
2024/01/25 03:36:31;;;;;;;18.47;4.83;;;6.30;99.90;;;;;;5055862;28;20228;-78
2024/01/25 03:38:56;;;;;;;15.10;4.87;;;6.30;99.90;;;;;;5055442;28;20562;-78
2024/01/25 03:41:23;;;;;;;13.87;4.37;;;6.40;99.90;;;;;;5054915;28;20171;-79
2024/01/25 03:43:48;;;;;;;14.90;4.77;;;6.50;99.90;;;;;;5053868;28;20219;-79
2024/01/25 03:46:14;;;;;;;17.57;5.53;;;6.50;99.90;;;;;;5053987;28;20710;-78
2024/01/25 03:48:40;;;;;;;14.10;4.43;;;6.40;99.90;;;;;;5055307;28;20168;-79
2024/01/25 03:51:05;;;;;;;17.37;4.80;;;6.30;99.90;;;;;;5054961;28;20174;-78
2024/01/25 03:53:31;;;;;;;17.33;4.83;;;6.30;99.90;;;;;;5055424;28;20197;-78
2024/01/25 03:55:56;;;;;;;16.60;5.10;;;6.30;99.90;;;;;;5055142;28;20606;-78
2024/01/25 03:58:22;;;;;;;18.00;5.40;;;6.20;99.90;;;;;;5055012;28;20256;-78
2024/01/25 04:00:47;;;;;;;25.77;4.73;;;6.20;99.90;;;;;;5069882;28;20178;-78
2024/01/25 04:03:13;;;;;;;16.53;4.83;;;6.20;99.90;;;;;;5054652;28;20279;-79
2024/01/25 04:05:42;;;;;;;12.70;4.43;;;6.10;99.90;;;;;;5055056;28;20199;-78
2024/01/25 04:08:07;;;;;;;17.83;4.70;;;6.10;99.90;;;;;;5053733;28;20171;-79
2024/01/25 04:10:34;;;;;;;16.90;4.70;;;6.10;99.90;;;;;;5053311;28;20175;-79
2024/01/25 04:13:04;;;;;;;14.87;4.63;;;6.00;99.90;;;;;;5053377;28;20582;-78
2024/01/25 04:15:30;;;;;;;17.50;5.53;;;6.00;99.90;;;;;;5055007;28;20167;-78
2024/01/25 04:17:56;;;;;;;15.37;4.87;;;6.00;99.90;;;;;;5055002;28;20186;-78
2024/01/25 04:20:21;;;;;;;17.83;5.17;;;6.10;99.90;;;;;;5053250;28;20170;-78
2024/01/25 04:22:47;;;;;;;17.20;4.53;;;6.00;99.90;;;;;;5053366;28;20194;-79
2024/01/25 04:25:13;;;;;;;17.73;4.70;;;6.00;99.90;;;;;;5054619;28;20564;-80
2024/01/25 04:27:38;;;;;;;15.97;4.57;;;6.00;99.90;;;;;;5053386;28;20212;-79
2024/01/25 04:30:05;;;;;;;16.33;4.10;;;6.00;99.90;;;;;;5053305;28;20185;-78
2024/01/25 04:32:31;;;;;;;19.23;4.60;;;6.10;99.90;;;;;;5052671;28;20179;-80
2024/01/25 04:34:56;;;;;;;15.00;4.40;;;6.10;99.90;;;;;;5054451;28;20178;-78
2024/01/25 04:37:22;;;;;;;16.87;4.97;;;6.10;99.90;;;;;;5053440;28;20266;-78
2024/01/25 04:39:48;;;;;;;17.80;5.03;;;6.10;99.90;;;;;;5052688;28;20179;-78
2024/01/25 04:42:13;;;;;;;17.87;4.80;;;6.10;99.90;;;;;;5053025;28;20608;-78
2024/01/25 04:44:39;;;;;;;15.37;4.70;;;6.00;99.90;;;;;;5054127;28;20673;-78
2024/01/25 04:47:05;;;;;;;17.23;4.63;;;6.00;99.90;;;;;;5054156;28;20293;-78
2024/01/25 04:49:30;;;;;;;18.47;4.80;;;6.00;99.90;;;;;;5054026;28;20252;-78
2024/01/25 04:51:56;;;;;;;15.97;4.70;;;6.00;99.90;;;;;;5053662;28;20166;-79
2024/01/25 04:54:21;;;;;;;15.20;4.30;;;6.00;99.90;;;;;;5053751;28;20243;-79
2024/01/25 04:56:47;;;;;;;15.03;5.10;;;6.00;99.90;;;;;;5053825;28;20261;-78
2024/01/25 04:59:13;;;;;;;17.40;4.20;;;6.00;99.90;;;;;;5053880;28;20221;-78
2024/01/25 05:01:38;;;;;;;11.80;4.33;;;5.90;99.90;;;;;;5052051;28;20175;-78
2024/01/25 05:04:04;;;;;;;19.03;5.00;;;5.90;99.90;;;;;;5110476;22;20227;-81
2024/01/25 05:06:29;;;;;;;16.73;4.70;;;5.90;99.90;;;;;;5075101;28;20201;-79
2024/01/25 05:08:55;;;;;;;17.57;5.43;;;5.90;99.90;;;;;;5074130;28;20557;-79
2024/01/25 05:11:20;;;;;;;16.80;3.93;;;5.90;99.90;;;;;;5073774;28;20206;-80
2024/01/25 05:13:46;;;;;;;17.13;4.33;;;5.90;99.90;;;;;;5074750;28;20197;-81
2024/01/25 05:16:12;;;;;;;15.43;4.70;;;5.90;99.90;;;;;;5073807;28;20172;-79
2024/01/25 05:18:37;;;;;;;17.17;4.90;;;5.90;99.90;;;;;;5075448;28;20248;-79
2024/01/25 05:21:03;;;;;;;17.57;4.70;;;6.00;99.90;;;;;;5075064;28;20185;-79
2024/01/25 05:23:28;;;;;;;17.77;4.37;;;6.00;99.90;;;;;;5073640;28;20236;-81
2024/01/25 05:25:54;;;;;;;13.43;4.53;;;5.90;99.90;;;;;;5073641;28;20205;-79
2024/01/25 05:28:19;;;;;;;17.13;4.63;;;6.00;99.90;;;;;;5074955;28;20208;-79
2024/01/25 05:30:45;;;;;;;16.80;4.90;;;6.00;99.90;;;;;;5074713;28;20173;-79
2024/01/25 05:33:11;;;;;;;17.07;5.20;;;5.90;99.90;;;;;;5073566;28;20227;-81
2024/01/25 05:35:36;;;;;;;21.77;5.50;;;6.00;99.90;;;;;;5074904;28;20178;-79
2024/01/25 05:38:02;;;;;;;16.33;4.60;;;6.00;99.90;;;;;;5074981;28;20179;-79
2024/01/25 05:40:27;;;;;;;17.37;4.73;;;6.00;99.90;;;;;;5073546;28;20181;-79
2024/01/25 05:42:53;;;;;;;18.90;4.80;;;6.00;99.90;;;;;;5074951;28;20214;-81
2024/01/25 05:45:20;;;;;;;12.00;4.43;;;5.90;99.90;;;;;;5073635;28;20193;-79
2024/01/25 05:47:46;;;;;;;19.33;4.97;;;5.90;99.90;;;;;;5073368;28;20295;-79
2024/01/25 05:50:12;;;;;;;14.20;4.50;;;5.90;99.90;;;;;;5074215;28;20246;-77
2024/01/25 05:52:37;;;;;;;16.47;4.40;;;5.80;99.90;;;;;;5074741;28;20181;-81
2024/01/25 05:55:07;;;;;;;15.63;5.20;;;5.70;99.90;;;;;;5073448;28;20197;-79
2024/01/25 05:57:35;;;;;;;17.30;4.60;;;5.70;99.90;;;;;;5073631;28;20183;-79
2024/01/25 06:00:01;;;;;;;14.47;4.43;;;5.60;99.90;;;;;;5073211;28;20276;-79
2024/01/25 06:02:26;;;;;;;14.83;4.40;;;5.60;99.90;;;;;;5073053;28;20219;-79
2024/01/25 06:04:52;;;;;;;16.60;4.93;;;5.60;99.90;;;;;;5072315;28;20208;-81
2024/01/25 06:07:17;;;;;;;15.97;4.80;;;5.60;99.90;;;;;;5072362;28;20208;-82
2024/01/25 06:09:43;;;;;;;14.50;4.97;;;5.60;99.90;;;;;;5072863;28;20184;-81
2024/01/25 06:12:09;;;;;;;12.97;4.13;;;5.50;99.90;;;;;;5072653;28;20311;-80
2024/01/25 06:14:34;;;;;;;19.17;4.77;;;5.50;99.90;;;;;;5074502;28;20200;-80
2024/01/25 06:17:00;;;;;;;18.87;4.70;;;5.40;99.90;;;;;;5074229;28;20184;-80
2024/01/25 06:19:25;;;;;;;13.97;4.53;;;5.40;99.90;;;;;;5073641;28;20330;-80
2024/01/25 06:21:51;;;;;;;9.70;3.40;;;5.30;99.90;;;;;;5072706;28;20173;-79
2024/01/25 06:24:16;;;;;;;12.30;3.70;;;5.50;99.90;;;;;;5074909;28;20200;-81
2024/01/25 06:26:42;;;;;;;13.47;4.27;;;6.10;99.90;;;;;;5073324;28;20205;-78
2024/01/25 06:29:07;;;;;;;15.53;4.30;;;6.50;99.90;;;;;;5071657;28;20172;-78
2024/01/25 06:31:41;;;;;;;15.37;4.70;;;6.90;99.90;;;;;;5072001;28;20250;-79
2024/01/25 06:34:07;;;;;;;14.50;4.50;;;7.20;1.00;;;;;;5073539;28;20208;-80
2024/01/25 06:36:32;;;;;;;15.57;4.63;;;7.20;99.90;;;;;;5073229;28;20299;-81
2024/01/25 06:38:58;;;;;;;12.17;3.87;;;6.60;99.90;;;;;;5071666;28;20182;-81
2024/01/25 06:41:23;;;;;;;21.87;5.37;;;6.30;1.00;;;;;;5071604;28;20180;-81
2024/01/25 06:43:49;;;;;;;16.90;4.67;;;6.00;5.30;;;;;;5072455;28;20197;-82
2024/01/25 06:46:14;;;;;;;16.43;4.63;;;5.70;99.90;;;;;;5072641;28;20177;-80
2024/01/25 06:48:40;;;;;;;15.10;4.50;;;5.60;99.90;;;;;;5072438;28;20243;-81
2024/01/25 06:51:05;;;;;;;14.43;4.83;;;5.50;99.90;;;;;;5072498;28;20693;-80
2024/01/25 06:53:31;;;;;;;13.17;4.37;;;5.50;99.90;;;;;;5073051;28;20221;-80
2024/01/25 06:55:56;;;;;;;12.70;5.37;;;5.50;99.90;;;;;;5071484;28;20201;-82
2024/01/25 06:58:22;;;;;;;17.03;5.20;;;5.50;99.90;;;;;;5070774;28;20166;-81
2024/01/25 07:00:48;;;;;;;16.87;5.50;;;5.40;99.90;;;;;;5070116;28;20177;-81
2024/01/25 07:03:15;;;;;;;18.07;5.27;;;5.40;99.90;;;;;;5072051;28;20207;-81
2024/01/25 07:05:41;;;;;;;17.87;5.13;;;5.40;99.90;;;;;;5075898;28;20227;-82
2024/01/25 07:08:08;;;;;;;16.87;5.10;;;5.30;99.90;;;;;;5075285;28;20583;-84
2024/01/25 07:10:34;;;;;;;20.30;5.10;;;5.30;99.90;;;;;;5075975;28;20161;-82
2024/01/25 07:13:00;;;;;;;16.07;4.40;;;5.30;99.90;;;;;;5076920;28;20256;-82
2024/01/25 07:15:26;;;;;;;16.97;5.13;;;5.30;99.90;;;;;;5075249;28;20201;-83
2024/01/25 07:17:51;;;;;;;21.17;5.90;;;5.30;99.90;;;;;;5075246;28;20654;-83
2024/01/25 07:20:17;;;;;;;19.07;5.07;;;5.20;99.90;;;;;;5075507;28;20173;-82
2024/01/25 07:22:42;;;;;;;15.27;4.37;;;5.20;99.90;;;;;;5075657;28;20192;-82
2024/01/25 07:25:08;;;;;;;12.30;4.40;;;5.10;99.90;;;;;;5076023;28;20189;-84
2024/01/25 07:27:34;;;;;;;14.67;5.03;;;5.20;99.90;;;;;;5075674;28;20183;-85
2024/01/25 07:29:59;;;;;;;14.73;4.60;;;5.10;99.90;;;;;;5074329;28;20184;-83
2024/01/25 07:32:25;;;;;;;15.03;4.30;;;5.00;99.90;;;;;;5074104;28;20192;-82
2024/01/25 07:34:51;;;;;;;16.27;4.80;;;4.90;99.90;;;;;;5076020;28;20197;-82
2024/01/25 07:37:18;;;;;;;16.30;4.70;;;4.80;99.90;;;;;;5073525;28;20205;-83
2024/01/25 07:39:44;;;;;;;13.70;4.20;;;4.80;99.90;;;;;;5075490;28;20200;-83
2024/01/25 07:42:10;;;;;;;14.37;4.50;;;4.80;99.90;;;;;;5073921;28;20173;-82
2024/01/25 07:44:35;;;;;;;15.40;4.40;;;4.70;99.90;;;;;;5074466;28;20293;-82
2024/01/25 07:47:02;;;;;;;16.87;4.33;;;4.70;99.90;;;;;;5075465;28;20181;-83
2024/01/25 07:49:27;;;;;;;10.93;4.03;;;4.70;99.90;;;;;;5075253;28;20260;-83
2024/01/25 07:51:53;;;;;;;15.50;4.50;;;4.70;99.90;;;;;;5073569;28;20203;-82
2024/01/25 07:54:18;;;;;;;13.70;4.30;;;4.70;99.90;;;;;;5075350;28;20192;-82
2024/01/25 07:56:44;;;;;;;15.90;5.63;;;4.80;99.90;;;;;;5075604;28;20222;-82
2024/01/25 07:59:09;;;;;;;15.33;4.83;;;4.70;99.90;;;;;;5075228;28;20602;-82
2024/01/25 08:01:35;;;;;;;16.70;5.03;;;4.70;99.90;;;;;;5074826;28;20209;-83
2024/01/25 08:04:01;;;;;;;18.10;5.03;;;4.60;99.90;;;;;;5073497;28;20204;-82
2024/01/25 08:06:27;;;;;;;13.90;4.73;;;4.60;99.90;;;;;;5074099;28;20195;-83
2024/01/25 08:08:52;;;;;;;16.27;5.13;;;4.60;99.90;;;;;;5073699;28;20184;-82
2024/01/25 08:11:19;;;;;;;14.20;4.77;;;4.60;99.90;;;;;;5075000;28;20177;-83
2024/01/25 08:13:47;;;;;;;14.40;4.67;;;4.60;99.90;;;;;;5074991;28;20207;-84
2024/01/25 08:16:13;;;;;;;16.97;4.63;;;4.60;99.90;;;;;;5074113;28;20748;-82
2024/01/25 08:18:39;;;;;;;11.97;4.53;;;4.60;99.90;;;;;;5074947;28;20669;-82
2024/01/25 08:21:05;;;;;;;12.37;4.67;;;4.60;99.90;;;;;;5073214;28;20211;-82
2024/01/25 08:23:31;;;;;;;17.30;4.90;;;4.60;99.90;;;;;;5074697;28;20185;-83
2024/01/25 08:25:56;;;;;;;12.00;4.60;;;4.60;99.90;;;;;;5073719;28;20188;-83
2024/01/25 08:28:22;;;;;;;14.03;4.90;;;4.60;99.90;;;;;;5073997;28;20173;-82
2024/01/25 08:30:48;;;;;;;16.90;5.40;;;4.70;99.90;;;;;;5073338;28;20268;-83
2024/01/25 08:33:13;;;;;;;21.33;5.00;;;4.80;99.90;;;;;;5073577;28;20177;-82
2024/01/25 08:35:40;;;;;;;15.30;4.73;;;4.80;99.90;;;;;;5073454;28;20201;-82
2024/01/25 08:38:06;;;;;;;12.60;4.70;;;4.90;99.90;;;;;;5074875;28;20287;-82
2024/01/25 08:40:32;;;;;;;17.03;5.13;;;4.90;99.90;;;;;;5074343;28;20242;-82
2024/01/25 08:42:58;;;;;;;19.70;5.20;;;5.00;99.90;;;;;;5072740;28;20646;-83
2024/01/25 08:45:24;;;;;;;16.20;4.40;;;5.10;99.90;;;;;;5072878;28;20203;-82
2024/01/25 08:47:51;;;;;;;16.43;4.50;;;5.20;99.90;;;;;;5065697;28;20188;-80
2024/01/25 08:50:16;;;;;;;14.60;4.37;;;5.30;99.90;;;;;;5053472;28;20230;-82
2024/01/25 08:52:42;;;;;;;15.47;4.30;;;5.30;99.90;;;;;;5053012;28;20181;-82
2024/01/25 08:55:09;;;;;;;16.10;4.77;;;5.40;99.90;;;;;;5053903;28;20699;-82
2024/01/25 08:57:35;;;;;;;15.07;5.13;;;5.50;99.90;;;;;;5054165;28;20269;-83
2024/01/25 09:00:01;;;;;;;13.07;4.87;;;5.50;99.90;;;;;;5062256;28;20732;-80
2024/01/25 09:02:28;;;;;;;12.67;4.30;;;5.60;99.90;;;;;;5072466;28;20176;-81
2024/01/25 09:04:54;;;;;;;15.73;4.60;;;5.70;99.90;;;;;;5072207;28;20553;-82
2024/01/25 09:07:20;;;;;;;14.07;5.10;;;5.70;99.90;;;;;;5072626;28;20177;-82
2024/01/25 09:09:45;;;;;;;15.13;4.23;;;5.80;99.90;;;;;;5072196;28;20172;-81
2024/01/25 09:12:12;;;;;;;11.87;4.60;;;6.00;99.90;;;;;;5071851;28;20185;-81
2024/01/25 09:14:38;;;;;;;17.03;4.90;;;6.20;40.40;;;;;;5072103;28;20708;-81
2024/01/25 09:17:04;;;;;;;13.97;4.57;;;6.30;1.00;;;;;;5073534;28;20201;-81
2024/01/25 09:19:30;;;;;;;19.10;4.87;;;6.20;1.00;;;;;;5071811;28;20173;-81
2024/01/25 09:21:59;;;;;;;14.43;4.27;;;6.30;1.00;;;;;;5073247;28;20268;-83
2024/01/25 09:24:25;;;;;;;12.90;4.37;;;6.20;1.00;;;;;;5073489;28;20196;-80
2024/01/25 09:26:50;;;;;;;13.27;4.50;;;6.20;1.00;;;;;;5073131;28;20203;-80
2024/01/25 09:29:16;;;;;;;12.83;4.13;;;6.30;1.00;;;;;;5073740;28;20178;-79
2024/01/25 09:31:41;;;;;;;17.83;4.93;;;6.40;1.00;;;;;;5073650;28;20177;-80
2024/01/25 09:34:07;;;;;;;15.37;4.53;;;6.60;1.00;;;;;;5072635;28;20200;-80
2024/01/25 09:36:33;;;;;;;14.70;4.03;;;6.70;99.90;;;;;;5066486;28;20201;-80
2024/01/25 09:38:58;;;;;;;16.87;4.83;;;6.80;1.00;;;;;;5058638;28;20265;-81
2024/01/25 09:41:24;;;;;;;10.33;4.07;;;6.80;15.10;;;;;;5069790;28;20174;-80
2024/01/25 09:43:49;;;;;;;13.33;4.37;;;6.80;1.00;;;;;;5072649;28;20193;-79
2024/01/25 09:46:16;;;;;;;13.03;4.43;;;6.90;1.00;;;;;;5073655;28;20180;-79
2024/01/25 09:48:43;;;;;;;15.30;3.80;;;6.90;1.00;;;;;;5078939;28;20233;-80
2024/01/25 09:51:11;;;;;;;13.27;3.83;;;6.90;1.00;;;;;;5083459;28;20262;-79
2024/01/25 09:53:37;;;;;;;15.60;3.77;;;7.00;1.00;;;;;;5082818;28;20200;-79
2024/01/25 09:56:08;;;;;;;10.93;3.67;;;7.00;1.00;;;;;;5071904;28;20205;-79
2024/01/25 09:58:39;;;;;;;10.80;3.33;;;7.00;99.90;;;;;;5091034;28;20544;-79
2024/01/25 10:01:11;;;;;;;17.73;4.10;;;7.00;99.90;;;;;;5092931;28;20253;-79
2024/01/25 10:03:37;;;;;;;10.40;3.80;;;7.00;99.90;;;;;;5093310;28;20254;-79
2024/01/25 10:06:03;;;;;;;13.10;3.80;;;7.00;1.00;;;;;;5093506;28;20173;-80
2024/01/25 10:08:29;;;;;;;13.30;3.93;;;7.10;99.90;;;;;;5092155;28;20241;-79
2024/01/25 10:10:55;;;;;;;13.30;3.87;;;7.00;99.90;;;;;;5071479;28;20665;-80
2024/01/25 10:13:21;;;;;;;11.93;3.57;;;6.90;1.00;;;;;;5073001;28;20200;-80
2024/01/25 10:15:48;;;;;;;7.20;3.10;;;7.00;1.00;;;;;;5073434;28;20180;-80
2024/01/25 10:18:14;;;;;;;12.87;3.63;;;7.00;99.90;;;;;;5073016;28;20169;-79
2024/01/25 10:20:41;;;;;;;11.97;3.47;;;7.00;1.00;;;;;;5071069;28;20198;-79
2024/01/25 10:23:07;;;;;;;10.00;3.23;;;7.00;1.00;;;;;;5071768;28;20256;-79
2024/01/25 10:25:37;;;;;;;9.80;3.23;;;7.10;1.00;;;;;;5071704;28;20226;-79
2024/01/25 10:28:04;;;;;;;16.70;4.00;;;7.10;1.00;;;;;;5073011;28;20242;-80
2024/01/25 10:30:35;;;;;;;10.03;3.77;;;7.20;99.90;;;;;;5071133;28;20206;-79
2024/01/25 10:33:02;;;;;;;12.10;3.20;;;7.30;21.90;;;;;;5072336;28;20197;-80
2024/01/25 10:35:28;;;;;;;11.97;3.00;;;7.40;1.00;;;;;;5072466;28;20195;-78
2024/01/25 10:37:54;;;;;;;13.90;3.27;;;7.40;1.00;;;;;;5070262;28;20236;-78
2024/01/25 10:40:21;;;;;;;11.60;3.40;;;7.40;1.00;;;;;;5069982;28;20173;-78
2024/01/25 10:42:47;;;;;;;11.73;3.57;;;7.40;99.90;;;;;;5070672;28;20167;-78
2024/01/25 10:45:13;;;;;;;10.37;3.23;;;7.50;1.00;;;;;;5072102;28;20254;-78
2024/01/25 10:47:44;;;;;;;10.10;3.63;;;7.50;1.00;;;;;;5071816;28;20175;-78
2024/01/25 10:50:13;;;;;;;11.33;3.13;;;7.50;1.00;;;;;;5071708;28;20177;-77
2024/01/25 10:52:39;;;;;;;15.40;3.67;;;7.50;1.00;;;;;;5072007;28;20182;-77
2024/01/25 10:55:07;;;;;;;13.97;3.00;;;7.50;1.00;;;;;;5070543;28;20551;-77
2024/01/25 10:57:42;;;;;;;12.93;3.43;;;7.50;1.00;;;;;;5070725;28;20202;-78
2024/01/25 11:00:14;;;;;;;11.40;2.80;;;7.50;1.00;;;;;;5070492;28;20536;-78
2024/01/25 11:02:40;;;;;;;12.17;2.97;;;7.60;1.00;;;;;;5070449;28;20573;-78
2024/01/25 11:05:11;;;;;;;11.10;3.13;;;7.60;99.90;;;;;;5120879;22;20240;-78
2024/01/25 11:07:50;;;;;;;9.40;3.23;;;7.60;99.90;;;;;;5054514;28;20175;-78
2024/01/25 11:10:17;;;;;;;10.10;3.33;;;7.80;1.00;;;;;;5071905;28;20178;-79
2024/01/25 11:13:03;;;;;;;10.60;3.63;;;8.10;1.00;;;;;;5072283;28;20225;-78
2024/01/25 11:15:33;;;;;;;9.87;3.00;;;8.20;1.00;;;;;;5072431;28;20209;-78
2024/01/25 11:18:00;;;;;;;14.70;3.10;;;8.50;1.00;;;;;;5054190;28;20227;-79
2024/01/25 11:20:28;;;;;;;11.33;2.90;;;8.50;47.80;;;;;;5053424;28;20222;-78
2024/01/25 11:23:08;;;;;;;11.17;3.47;;;8.10;99.90;;;;;;5054173;28;20176;-79
2024/01/25 11:25:36;;;;;;;10.27;3.20;;;7.90;99.90;;;;;;5071859;28;20219;-78
2024/01/25 11:28:04;;;;;;;12.13;3.10;;;7.80;1.00;;;;;;5072273;28;20203;-79
2024/01/25 11:30:33;;;;;;;12.40;2.90;;;7.80;1.00;;;;;;5053312;28;20183;-80
2024/01/25 11:32:59;;;;;;;11.80;2.80;;;7.80;99.90;;;;;;5072714;28;20175;-81
2024/01/25 11:35:24;;;;;;;12.30;2.90;;;7.80;99.90;;;;;;5055366;28;20199;-80
2024/01/25 11:37:53;;;;;;;10.13;2.97;;;7.80;99.90;;;;;;5073501;28;20213;-81
2024/01/25 11:40:19;;;;;;;13.90;3.13;;;7.80;1.00;;;;;;5055071;28;20176;-81
2024/01/25 11:42:48;;;;;;;10.80;3.33;;;7.80;1.00;;;;;;5055327;28;20258;-80
2024/01/25 11:45:14;;;;;;;13.30;2.50;;;7.80;1.00;;;;;;5055979;28;20193;-80
2024/01/25 11:47:41;;;;;;;13.03;3.30;;;7.80;55.50;;;;;;5074136;28;20189;-81
2024/01/25 11:50:08;;;;;;;14.10;3.47;;;7.90;1.00;;;;;;5073447;28;20183;-80
2024/01/25 11:52:34;;;;;;;10.37;3.30;;;7.90;1.00;;;;;;5058715;28;20248;-80
2024/01/25 11:55:04;;;;;;;9.43;3.43;;;8.00;1.00;;;;;;5058899;28;20207;-80
2024/01/25 11:57:37;;;;;;;13.30;3.47;;;8.00;1.00;;;;;;5059007;28;20203;-80
2024/01/25 12:00:07;;;;;;;11.60;3.20;;;8.00;1.00;;;;;;5058824;28;20175;-80
2024/01/25 12:02:33;;;;;;;11.80;3.13;;;7.90;14.70;;;;;;5076722;28;20203;-80
2024/01/25 12:04:58;;;;;;;13.27;3.67;;;7.90;31.00;;;;;;5059074;28;20204;-80
2024/01/25 12:07:24;;;;;;;14.57;3.03;;;7.90;99.90;;;;;;5076831;28;20186;-80
2024/01/25 12:10:01;;;;;;;12.57;3.40;;;7.90;99.90;;;;;;5076578;28;20180;-82
2024/01/25 12:12:27;;;;;;;10.07;2.97;;;7.90;1.00;;;;;;5076125;28;20170;-80
2024/01/25 12:15:01;;;;;;;11.10;3.27;;;7.90;92.00;;;;;;5076708;28;20194;-80
2024/01/25 12:17:29;;;;;;;9.00;3.30;;;7.90;1.00;;;;;;5058428;28;20236;-80
2024/01/25 12:19:56;;;;;;;17.50;5.33;;;8.00;99.90;;;;;;5058352;28;20172;-80
2024/01/25 12:22:22;;;;;;;13.03;3.50;;;8.10;1.00;;;;;;5058479;28;20171;-80
2024/01/25 12:24:48;;;;;;;12.53;3.50;;;8.20;1.00;;;;;;5058886;28;20199;-80
2024/01/25 12:27:15;;;;;;;10.00;3.00;;;8.40;1.00;;;;;;5076748;28;20179;-80
2024/01/25 12:29:43;;;;;;;12.57;3.60;;;8.50;1.00;;;;;;5076247;28;20259;-80
2024/01/25 12:32:09;;;;;;;11.60;3.50;;;8.50;1.00;;;;;;5058153;28;20175;-82
2024/01/25 12:34:35;;;;;;;12.87;3.83;;;8.40;1.00;;;;;;5076868;28;20229;-80
2024/01/25 12:37:00;;;;;;;10.40;3.83;;;8.30;79.60;;;;;;5076929;28;20273;-80
2024/01/25 12:39:26;;;;;;;13.53;4.10;;;8.30;1.00;;;;;;5076953;28;20254;-83
2024/01/25 12:41:51;;;;;;;12.03;4.23;;;8.20;11.20;;;;;;5058597;28;20165;-81
2024/01/25 12:44:17;;;;;;;8.73;3.40;;;8.30;70.40;;;;;;5076673;28;20192;-80